University AP, Davis, CA, CA

10:31 AM PDT on May 23, 2018 (GMT -0700)
University AP, Davis, CA

Weather History for KEDU - March, 2014

Change the Weather History Date:

Monday, March 10, 2014

  Actual Average (KSMF) Record (KSMF)
Temperature  
Mean Temperature 60 °F -  
Max Temperature 66 °F 63 °F 87 °F (2008)
Min Temperature 53 °F 44 °F 30 °F (2009)
Degree Days  
Heating Degree Days 6    
Growing Degree Days 10 (Base 50)    
Moisture  
Dew Point 46 °F    
Average Humidity 64    
Maximum Humidity 100    
Minimum Humidity 32    
Precipitation  
Precipitation 0.08 in - - ()
Sea Level Pressure  
Sea Level Pressure 30.17 in    
Wind  
Wind Speed 7 mph (NNW)    
Max Wind Speed 15 mph    
Max Gust Speed 21 mph    
Visibility 10 miles    
Events      
Averages and records for this station are not official NWS values.
T = Trace of Precipitation, MM = Missing Value Source: NWS Daily Summary

Daily Weather History Graph

Daily Weather History Graph

Search for Another Location

Airport or City:

Astronomy

Mar. 10, 2014 Rise Set
Actual Time 7:25 AM PDT 7:09 PM PDT
Civil Twilight 6:59 AM PDT 7:35 PM PDT
Nautical Twilight 6:28 AM PDT 8:06 PM PDT
Astronomical Twilight 5:57 AM PDT 8:37 PM PDT
Moon 2:00 PM PDT (3/10) 3:38 AM PDT (3/10)
Length of Visible Light 12h 36m
Length of Day
11h 43m
Waxing Gibbous, 71% of the Moon is Illuminated
Mar 10
Waxing Gibbous
Mar 16
Full
Mar 23
Last Quarter
Mar 30
New
Apr 7
First Quarter

Hourly Weather History & Observations

Time (PDT) Temp. Dew Point Humidity Pressure Visibility Wind Dir Wind Speed Gust Speed Precip Events Conditions
12:15 AM 59.0 °F 55.4 °F 88% 30.09 in 10.0 mi SSW 3.5 mph - N/A   Mostly Cloudy
12:35 AM 59.0 °F 55.4 °F 88% 30.09 in 10.0 mi South 6.9 mph - N/A   Overcast
12:55 AM 59.0 °F 53.6 °F 82% 30.09 in 10.0 mi SSW 5.8 mph - N/A   Overcast
1:15 AM 59.0 °F 53.6 °F 82% 30.08 in 10.0 mi South 4.6 mph - N/A   Overcast
1:35 AM 59.0 °F 50.0 °F 72% 30.07 in 10.0 mi South 5.8 mph - N/A   Overcast
1:55 AM 59.0 °F 50.0 °F 72% 30.07 in 10.0 mi SSW 4.6 mph - N/A   Mostly Cloudy
2:15 AM 59.0 °F 50.0 °F 72% 30.07 in 10.0 mi South 8.1 mph - N/A   Mostly Cloudy
2:35 AM 59.0 °F 50.0 °F 72% 30.07 in 10.0 mi SSW 9.2 mph - N/A   Mostly Cloudy
2:55 AM 59.0 °F 50.0 °F 72% 30.07 in 10.0 mi SSW 6.9 mph - N/A   Overcast
3:15 AM 59.0 °F 50.0 °F 72% 30.06 in 10.0 mi SSW 10.4 mph - N/A   Overcast
3:35 AM 59.0 °F 50.0 °F 72% 30.06 in 10.0 mi SSW 9.2 mph - N/A   Overcast
3:55 AM 59.0 °F 50.0 °F 72% 30.06 in 10.0 mi SSW 10.4 mph - N/A   Overcast
4:15 AM 59.0 °F 50.0 °F 72% 30.07 in 10.0 mi SSW 9.2 mph - N/A   Mostly Cloudy
4:35 AM 57.2 °F 51.8 °F 82% 30.08 in 10.0 mi SW 6.9 mph - N/A   Overcast
4:55 AM 57.2 °F 53.6 °F 88% 30.09 in 10.0 mi WSW 3.5 mph - N/A   Overcast
5:15 AM 59.0 °F 51.8 °F 77% 30.10 in 10.0 mi WNW 8.1 mph - N/A   Overcast
5:35 AM 59.0 °F 46.4 °F 63% 30.10 in 10.0 mi WNW 8.1 mph - N/A   Overcast
5:55 AM 59.0 °F 46.4 °F 63% 30.10 in 10.0 mi West 8.1 mph - N/A   Overcast
6:15 AM 55.4 °F 48.2 °F 77% 30.12 in 5.0 mi WNW 3.5 mph - 0.01 in   Overcast
6:35 AM 53.6 °F 50.0 °F 88% 30.12 in 5.0 mi Calm Calm - 0.05 in   Mostly Cloudy
6:55 AM 53.6 °F 53.6 °F 100% 30.12 in 7.0 mi Calm Calm - 0.08 in   Overcast
7:15 AM 53.6 °F 53.6 °F 100% 30.13 in 10.0 mi SSW 3.5 mph - N/A   Overcast
7:35 AM 53.6 °F 51.8 °F 94% 30.14 in 10.0 mi Calm Calm - N/A   Scattered Clouds
7:55 AM 53.6 °F 51.8 °F 94% 30.15 in 10.0 mi WNW 3.5 mph - N/A   Clear
8:15 AM 55.4 °F 50.0 °F 82% 30.17 in 10.0 mi Calm Calm - N/A   Clear
8:35 AM 53.6 °F 50.0 °F 88% 30.18 in 10.0 mi North 3.5 mph - N/A   Partly Cloudy
8:55 AM 53.6 °F 53.6 °F 100% 30.20 in 10.0 mi NNE 3.5 mph - N/A   Partly Cloudy
9:15 AM 55.4 °F 53.6 °F 94% 30.21 in 10.0 mi North 4.6 mph - N/A   Clear
9:35 AM 57.2 °F 53.6 °F 88% 30.22 in 10.0 mi North 5.8 mph - N/A   Scattered Clouds
9:55 AM 57.2 °F 53.6 °F 88% 30.23 in 10.0 mi NNW 5.8 mph - N/A   Mostly Cloudy
10:15 AM 57.2 °F 53.6 °F 88% 30.23 in 10.0 mi NNE 3.5 mph - N/A   Clear
10:35 AM 59.0 °F 53.6 °F 82% 30.23 in 10.0 mi NW 3.5 mph - N/A   Clear
10:55 AM 59.0 °F 53.6 °F 82% 30.24 in 10.0 mi NNW 5.8 mph - N/A   Clear
11:15 AM 60.8 °F 51.8 °F 72% 30.24 in 10.0 mi North 8.1 mph - N/A   Scattered Clouds
11:35 AM 60.8 °F 50.0 °F 68% 30.24 in 10.0 mi North 9.2 mph - N/A   Scattered Clouds
11:55 AM 62.6 °F 50.0 °F 63% 30.24 in 10.0 mi NNE 6.9 mph - N/A   Scattered Clouds
12:15 PM 62.6 °F 50.0 °F 63% 30.24 in 10.0 mi NNE 6.9 mph - N/A   Clear
12:35 PM 62.6 °F 48.2 °F 59% 30.23 in 10.0 mi NE 8.1 mph - N/A   Clear
12:55 PM 62.6 °F 48.2 °F 59% 30.23 in 10.0 mi North 5.8 mph - N/A   Clear
1:15 PM 62.6 °F 48.2 °F 59% 30.23 in 10.0 mi North 9.2 mph - N/A   Clear
1:35 PM 64.4 °F 48.2 °F 56% 30.22 in 10.0 mi NNW 9.2 mph 16.1 mph N/A   Clear
1:55 PM 64.4 °F 46.4 °F 52% 30.22 in 10.0 mi NNW 8.1 mph - N/A   Clear
2:15 PM 64.4 °F 46.4 °F 52% 30.21 in 10.0 mi North 5.8 mph - N/A   Clear
2:35 PM 64.4 °F 41.0 °F 42% 30.20 in 10.0 mi NNW 8.1 mph - N/A   Clear
2:55 PM 66.2 °F 42.8 °F 43% 30.19 in 10.0 mi NNE 9.2 mph 17.3 mph N/A   Clear
3:15 PM 66.2 °F 39.2 °F 37% 30.19 in 10.0 mi North 9.2 mph - N/A   Clear
3:35 PM 66.2 °F 37.4 °F 35% 30.18 in 10.0 mi NNW 10.4 mph 16.1 mph N/A   Clear
3:55 PM 66.2 °F 37.4 °F 35% 30.18 in 10.0 mi North 11.5 mph - N/A   Clear
4:15 PM 66.2 °F 39.2 °F 37% 30.18 in 10.0 mi NNE 13.8 mph - N/A   Clear
4:35 PM 66.2 °F 35.6 °F 32% 30.17 in 10.0 mi North 10.4 mph - N/A   Clear
4:55 PM 66.2 °F 35.6 °F 32% 30.17 in 10.0 mi North 11.5 mph 20.7 mph N/A   Clear
5:15 PM 66.2 °F 37.4 °F 35% 30.17 in 10.0 mi North 12.7 mph 17.3 mph N/A   Clear
5:35 PM 66.2 °F 37.4 °F 35% 30.17 in 10.0 mi North 12.7 mph 16.1 mph N/A   Clear
5:55 PM 66.2 °F 39.2 °F 37% 30.17 in 10.0 mi North 10.4 mph 18.4 mph N/A   Clear
6:15 PM 64.4 °F 41.0 °F 42% 30.17 in 10.0 mi North 11.5 mph - N/A   Clear
6:35 PM 64.4 °F 39.2 °F 40% 30.18 in 10.0 mi North 9.2 mph 17.3 mph N/A   Clear
6:55 PM 64.4 °F 41.0 °F 42% 30.18 in 10.0 mi North 8.1 mph - N/A   Clear
7:15 PM 62.6 °F 41.0 °F 45% 30.18 in 10.0 mi NNW 6.9 mph - N/A   Clear
7:35 PM 60.8 °F 41.0 °F 48% 30.18 in 10.0 mi North 9.2 mph - N/A   Clear
7:55 PM 59.0 °F 41.0 °F 51% 30.18 in 10.0 mi North 9.2 mph - N/A   Clear
8:15 PM 59.0 °F 39.2 °F 48% 30.19 in 10.0 mi NNW 6.9 mph - N/A   Clear
8:35 PM 59.0 °F 39.2 °F 48% 30.20 in 10.0 mi NW 6.9 mph - N/A   Clear
8:55 PM 57.2 °F 41.0 °F 55% 30.20 in 9.0 mi NNW 5.8 mph - N/A   Clear
9:15 PM 55.4 °F 41.0 °F 58% 30.21 in 7.0 mi NW 3.5 mph - N/A   Clear
9:35 PM 55.4 °F 41.0 °F 58% 30.21 in 10.0 mi NW 5.8 mph - N/A   Clear
9:55 PM 55.4 °F 41.0 °F 58% 30.21 in 8.0 mi NW 5.8 mph - N/A   Clear
10:15 PM 55.4 °F 41.0 °F 58% 30.20 in 6.0 mi NW 6.9 mph - N/A   Clear
10:35 PM 55.4 °F 39.2 °F 54% 30.20 in 8.0 mi NNW 8.1 mph - N/A   Clear
10:55 PM 55.4 °F 39.2 °F 54% 30.21 in 9.0 mi NNW 9.2 mph - N/A   Clear
11:15 PM 55.4 °F 37.4 °F 51% 30.21 in 9.0 mi NNW 9.2 mph - N/A   Clear
11:35 PM 55.4 °F 37.4 °F 51% 30.21 in 10.0 mi NNW 12.7 mph 17.3 mph N/A   Clear
11:55 PM 55.4 °F 37.4 °F 51% 30.20 in 10.0 mi NNW 15.0 mph 19.6 mph N/A   Clear